CheckWX is a tool to help pilots better visualize weather data.  It is not intended as a substitute for an official pre-flight weather briefing.

12:44:05 UTC

DNYO TAF
Yola Airport
Yola, Nigeria
TAF DNYO 212130Z 2200/2306 00000KT CAVOK BECMG 2208/2210 29006KT

Mar-22@
00:00 UTC

Mar-22 @ 00:00 UTC

Mar-22@
08:00 UTC

Mar-22 @ 08:00 UTC

TAF DNYO 212130Z 2200/2306 00000KT CAVOK

Expired

Conditions
No significant weather
Cloud Levels
  • No significant clouds

Mar-22@
08:00 UTC

Mar-22 @ 08:00 UTC

Mar-23@
06:00 UTC

Mar-23 @ 06:00 UTC

BECMG 2208/2210 29006KT

Becoming

Becoming Conditions expected by Fri, Mar 22, 2019 @ 10:00 UTC

Wind
  • 290° at 6 KTS
Conditions
No significant weather
Cloud Levels
  • No significant clouds